createdAt,value
2019-02-24T00:01:04.282Z,86.50
2019-02-24T00:03:32.851Z,86.10
2019-02-24T00:06:01.443Z,85.70
2019-02-24T00:08:30.023Z,85.30
2019-02-24T00:10:58.626Z,86.00
2019-02-24T00:13:27.193Z,86.20
2019-02-24T00:15:55.792Z,85.60
2019-02-24T00:18:24.391Z,85.50
2019-02-24T00:20:52.972Z,85.10
2019-02-24T00:23:21.563Z,85.10
2019-02-24T00:25:50.162Z,84.50
2019-02-24T00:28:18.743Z,83.80
2019-02-24T00:30:47.314Z,83.80
2019-02-24T00:33:15.923Z,84.00
2019-02-24T00:35:44.493Z,84.40
2019-02-24T00:38:13.089Z,82.90
2019-02-24T00:40:41.654Z,81.90
2019-02-24T00:43:10.230Z,82.10
2019-02-24T00:45:38.804Z,82.10
2019-02-24T00:48:07.446Z,82.70
2019-02-24T00:50:36.036Z,84.00
2019-02-24T00:53:04.677Z,82.50
2019-02-24T00:55:33.293Z,82.30
2019-02-24T00:58:01.900Z,83.40
2019-02-24T01:00:30.544Z,83.80
2019-02-24T01:02:59.115Z,82.20
2019-02-24T01:05:27.702Z,82.60
2019-02-24T01:07:56.267Z,85.40
2019-02-24T01:10:25.388Z,83.00
2019-02-24T01:12:53.964Z,82.90
2019-02-24T01:15:22.560Z,83.70
2019-02-24T01:17:51.237Z,84.30
2019-02-24T01:20:19.875Z,84.70
2019-02-24T01:22:49.615Z,85.00
2019-02-24T01:25:18.119Z,85.90
2019-02-24T01:27:46.761Z,85.40
2019-02-24T01:30:15.426Z,86.90
2019-02-24T01:32:44.028Z,85.40
2019-02-24T01:35:12.623Z,85.00
2019-02-24T01:37:41.184Z,86.00
2019-02-24T01:40:09.956Z,87.20
2019-02-24T01:42:38.592Z,86.90
2019-02-24T01:45:08.097Z,87.70
2019-02-24T01:47:36.687Z,88.00
2019-02-24T01:50:08.439Z,87.60
2019-02-24T01:52:37.064Z,88.30
2019-02-24T01:55:05.752Z,87.80
2019-02-24T01:57:34.395Z,88.10
2019-02-24T02:00:03.508Z,88.50
2019-02-24T02:02:32.106Z,88.80
2019-02-24T02:05:00.672Z,89.10
2019-02-24T02:07:29.238Z,88.30
2019-02-24T02:09:57.848Z,88.90
2019-02-24T02:12:26.433Z,88.60
2019-02-24T02:14:55.090Z,88.70
2019-02-24T02:17:23.742Z,88.50
2019-02-24T02:19:52.328Z,89.60
2019-02-24T02:22:20.978Z,90.00
2019-02-24T02:24:49.560Z,89.50
2019-02-24T02:27:18.200Z,89.80
2019-02-24T02:29:46.812Z,89.20
2019-02-24T02:32:15.426Z,88.70
2019-02-24T02:34:43.997Z,89.20
2019-02-24T02:37:12.580Z,89.20
2019-02-24T02:39:41.163Z,89.30
2019-02-24T02:42:09.749Z,89.90
2019-02-24T02:44:38.330Z,89.00
2019-02-24T02:47:06.999Z,88.90
2019-02-24T02:49:35.576Z,89.40
2019-02-24T02:52:04.145Z,90.00
2019-02-24T02:54:32.764Z,89.50
2019-02-24T02:57:01.351Z,89.80
2019-02-24T02:59:29.961Z,90.00
2019-02-24T03:01:58.540Z,90.00
2019-02-24T03:04:27.180Z,89.70
2019-02-24T03:07:03.437Z,90.30
2019-02-24T03:09:32.045Z,89.40
2019-02-24T03:12:00.628Z,89.30
2019-02-24T03:14:29.343Z,89.10
2019-02-24T03:16:57.950Z,89.60
2019-02-24T03:19:26.521Z,90.00
2019-02-24T03:21:55.090Z,89.60
2019-02-24T03:24:23.683Z,90.00
2019-02-24T03:26:52.287Z,89.50
2019-02-24T03:29:20.864Z,89.50
2019-02-24T03:31:49.465Z,89.30
2019-02-24T03:34:18.051Z,90.00
2019-02-24T03:36:46.691Z,90.20
2019-02-24T03:39:15.298Z,90.00
2019-02-24T03:41:43.865Z,89.60
2019-02-24T03:44:12.439Z,89.60
2019-02-24T03:46:41.102Z,89.50
2019-02-24T03:49:09.663Z,89.30
2019-02-24T03:51:38.324Z,90.30
2019-02-24T03:54:07.031Z,90.20
2019-02-24T03:56:35.817Z,90.20
2019-02-24T03:59:14.421Z,90.20
2019-02-24T04:01:34.749Z,90.00
2019-02-24T04:04:03.394Z,90.30
2019-02-24T04:06:31.969Z,90.30
2019-02-24T04:09:00.559Z,90.50
2019-02-24T04:11:29.208Z,90.60
2019-02-24T04:13:57.931Z,90.70
2019-02-24T04:16:26.503Z,90.60
2019-02-24T04:18:55.091Z,90.60
2019-02-24T04:21:23.693Z,90.40
2019-02-24T04:23:52.299Z,90.60
2019-02-24T04:26:21.042Z,90.60
2019-02-24T04:28:49.641Z,90.80
2019-02-24T04:31:18.287Z,90.60
2019-02-24T04:33:46.889Z,90.80
2019-02-24T04:36:15.473Z,90.80
2019-02-24T04:38:44.038Z,90.70
2019-02-24T04:41:12.654Z,90.30
2019-02-24T04:43:41.268Z,90.70
2019-02-24T04:46:09.886Z,90.90
2019-02-24T04:48:38.728Z,90.80
2019-02-24T04:51:07.359Z,90.90
2019-02-24T04:53:36.013Z,90.60
2019-02-24T04:56:04.579Z,90.60
2019-02-24T04:58:33.184Z,91.10
2019-02-24T05:01:01.868Z,90.80
2019-02-24T05:03:30.449Z,90.40
2019-02-24T05:05:59.036Z,90.70
2019-02-24T05:08:27.627Z,90.50
2019-02-24T05:10:56.226Z,90.60
2019-02-24T05:13:24.811Z,90.60
2019-02-24T05:15:53.525Z,90.10
2019-02-24T05:18:22.137Z,90.30
2019-02-24T05:20:50.732Z,90.40
2019-02-24T05:23:19.323Z,90.00
2019-02-24T05:25:47.889Z,90.50
2019-02-24T05:28:16.586Z,90.30
2019-02-24T05:30:45.123Z,90.30
2019-02-24T05:33:13.743Z,90.40
2019-02-24T05:35:42.322Z,90.70
2019-02-24T05:38:10.911Z,90.80
2019-02-24T05:40:39.536Z,91.00
2019-02-24T05:43:08.142Z,90.70
2019-02-24T05:45:36.721Z,90.50
2019-02-24T05:48:05.345Z,90.60
2019-02-24T05:50:33.984Z,91.10
2019-02-24T05:53:02.572Z,90.60
2019-02-24T05:55:31.131Z,90.70
2019-02-24T05:57:59.715Z,90.60
2019-02-24T06:00:28.288Z,90.60
2019-02-24T06:02:56.880Z,90.70
2019-02-24T06:05:25.464Z,90.40
2019-02-24T06:07:54.062Z,90.30
2019-02-24T06:10:22.624Z,90.00
2019-02-24T06:12:51.258Z,89.50
2019-02-24T06:15:19.919Z,90.00
2019-02-24T06:17:48.471Z,90.60
2019-02-24T06:20:17.117Z,90.70
2019-02-24T06:22:45.706Z,90.30
2019-02-24T06:25:14.288Z,90.20
2019-02-24T06:27:42.962Z,89.90
2019-02-24T06:30:11.548Z,88.90
2019-02-24T06:32:40.161Z,88.40
2019-02-24T06:35:08.812Z,88.20
2019-02-24T06:37:37.411Z,89.40
2019-02-24T06:40:07.616Z,89.00
2019-02-24T06:42:36.245Z,88.40
2019-02-24T06:45:06.762Z,88.30
2019-02-24T06:47:35.462Z,88.10
2019-02-24T06:50:06.164Z,88.90
2019-02-24T06:52:34.817Z,88.10
2019-02-24T06:55:04.055Z,88.10
2019-02-24T06:57:32.626Z,88.70
2019-02-24T07:00:01.230Z,87.80
2019-02-24T07:02:29.759Z,87.40
2019-02-24T07:04:58.359Z,86.30
2019-02-24T07:07:26.961Z,86.60
2019-02-24T07:09:55.519Z,86.50
2019-02-24T07:12:24.135Z,87.40
2019-02-24T07:14:52.675Z,87.30
2019-02-24T07:17:21.261Z,87.90
2019-02-24T07:19:49.842Z,87.40
2019-02-24T07:22:18.558Z,87.80
2019-02-24T07:24:47.118Z,87.20
2019-02-24T07:27:15.747Z,86.80
2019-02-24T07:29:44.402Z,87.00
2019-02-24T07:32:14.714Z,85.80
2019-02-24T07:34:43.312Z,85.40
2019-02-24T07:37:13.262Z,86.50
2019-02-24T07:39:43.847Z,87.70
2019-02-24T07:42:12.482Z,87.70
2019-02-24T07:44:41.036Z,86.80
2019-02-24T07:47:09.655Z,87.60
2019-02-24T07:49:38.208Z,87.30
2019-02-24T07:52:06.888Z,87.50
2019-02-24T07:54:35.469Z,86.70
2019-02-24T07:57:05.724Z,86.50
2019-02-24T07:59:34.337Z,85.90
2019-02-24T08:02:02.990Z,84.80
2019-02-24T08:04:31.575Z,84.30
2019-02-24T08:07:00.208Z,85.30
2019-02-24T08:09:28.879Z,86.20
2019-02-24T08:11:57.440Z,85.00
2019-02-24T08:14:26.028Z,84.30
2019-02-24T08:16:54.608Z,83.40
2019-02-24T08:19:23.191Z,82.90
2019-02-24T08:21:51.752Z,80.90
2019-02-24T08:24:20.419Z,80.50
2019-02-24T08:26:48.992Z,80.30
2019-02-24T08:29:17.584Z,80.70
2019-02-24T08:31:46.262Z,78.70
2019-02-24T08:34:18.221Z,75.20
2019-02-24T08:36:46.751Z,74.10
2019-02-24T08:39:15.337Z,73.00
2019-02-24T08:41:43.949Z,71.00
2019-02-24T08:44:12.531Z,72.00
2019-02-24T08:46:41.116Z,70.60
2019-02-24T08:49:09.692Z,70.90
2019-02-24T08:51:38.276Z,70.90
2019-02-24T08:54:06.839Z,70.00
2019-02-24T08:56:35.438Z,70.30
2019-02-24T08:59:04.182Z,70.40
2019-02-24T09:01:32.765Z,69.20
2019-02-24T09:04:01.425Z,69.30
2019-02-24T09:06:29.999Z,67.50
2019-02-24T09:08:58.639Z,66.50
2019-02-24T09:11:27.325Z,67.40
2019-02-24T09:13:55.885Z,66.30
2019-02-24T09:16:24.489Z,66.50
2019-02-24T09:18:53.051Z,66.40
2019-02-24T09:21:21.609Z,66.00
2019-02-24T09:23:50.348Z,64.10
2019-02-24T09:26:19.282Z,62.90
2019-02-24T09:28:47.863Z,61.80
2019-02-24T09:31:16.609Z,59.90
2019-02-24T09:33:45.188Z,61.90
2019-02-24T09:36:13.820Z,60.30
2019-02-24T09:38:42.428Z,61.00
2019-02-24T09:41:11.060Z,63.10
2019-02-24T09:43:39.635Z,57.90
2019-02-24T09:46:08.203Z,55.20
2019-02-24T09:48:36.810Z,57.10
2019-02-24T09:51:05.444Z,57.30
2019-02-24T09:53:34.001Z,53.30
2019-02-24T09:56:02.638Z,53.30
2019-02-24T09:58:31.202Z,53.80
2019-02-24T10:00:59.829Z,56.30
2019-02-24T10:03:28.416Z,53.10
2019-02-24T10:05:57.048Z,51.90
2019-02-24T10:08:25.681Z,50.70
2019-02-24T10:10:54.250Z,49.20
2019-02-24T10:13:22.938Z,48.20
2019-02-24T10:15:51.523Z,48.60
2019-02-24T10:18:21.011Z,47.90
2019-02-24T10:20:49.815Z,48.00
2019-02-24T10:23:18.384Z,47.20
2019-02-24T10:25:46.964Z,50.40
2019-02-24T10:28:15.557Z,48.20
2019-02-24T10:30:44.282Z,49.50
2019-02-24T10:33:12.944Z,48.80
2019-02-24T10:35:41.544Z,47.40
2019-02-24T10:38:10.161Z,48.40
2019-02-24T10:40:38.858Z,47.80
2019-02-24T10:43:07.407Z,47.30
2019-02-24T10:45:36.075Z,48.80
2019-02-24T10:48:13.545Z,47.30
2019-02-24T10:50:34.996Z,47.90
2019-02-24T10:53:03.593Z,47.10
2019-02-24T10:55:32.192Z,45.20
2019-02-24T10:58:00.775Z,45.80
2019-02-24T11:00:29.424Z,44.00
2019-02-24T11:02:58.013Z,45.10
2019-02-24T11:05:26.680Z,44.70
2019-02-24T11:07:55.309Z,44.00
2019-02-24T11:10:23.976Z,42.80
2019-02-24T11:12:52.544Z,43.40
2019-02-24T11:15:21.135Z,42.90
2019-02-24T11:17:49.770Z,42.90
2019-02-24T11:20:18.841Z,41.10
2019-02-24T11:22:47.424Z,42.50
2019-02-24T11:25:16.134Z,40.50
2019-02-24T11:27:45.818Z,40.10
2019-02-24T11:30:15.398Z,40.40
2019-02-24T11:32:44.072Z,41.60
2019-02-24T11:35:13.279Z,38.80
2019-02-24T11:37:41.918Z,38.50
2019-02-24T11:40:15.800Z,38.80
2019-02-24T11:42:44.409Z,39.20
2019-02-24T11:45:13.064Z,38.10
2019-02-24T11:47:41.717Z,40.10
2019-02-24T11:50:11.320Z,41.60
2019-02-24T11:52:40.003Z,41.60
2019-02-24T11:55:09.960Z,40.30
2019-02-24T11:57:38.775Z,41.10
2019-02-24T12:00:12.751Z,41.00
2019-02-24T12:02:41.950Z,42.20
2019-02-24T12:05:11.064Z,39.70
2019-02-24T12:07:39.659Z,41.80
2019-02-24T12:10:12.226Z,40.20
2019-02-24T12:12:40.886Z,37.20
2019-02-24T12:15:13.860Z,40.00
2019-02-24T12:17:42.428Z,36.40
2019-02-24T12:20:12.096Z,35.20
2019-02-24T12:22:40.724Z,36.70
2019-02-24T12:25:10.570Z,36.90
2019-02-24T12:27:39.317Z,38.10
2019-02-24T12:30:18.106Z,38.20
2019-02-24T12:32:46.722Z,37.90
2019-02-24T12:35:15.285Z,37.30
2019-02-24T12:37:43.920Z,37.20
2019-02-24T12:40:13.938Z,37.20
2019-02-24T12:42:45.359Z,38.20
2019-02-24T12:45:14.011Z,38.60
2019-02-24T12:47:42.653Z,35.60
2019-02-24T12:50:18.364Z,36.80
2019-02-24T12:52:46.970Z,36.50
2019-02-24T12:55:15.680Z,31.00
2019-02-24T12:57:44.499Z,30.40
2019-02-24T13:00:17.214Z,30.10
2019-02-24T13:02:45.855Z,32.10
2019-02-24T13:05:14.783Z,33.40
2019-02-24T13:07:43.439Z,32.10
2019-02-24T13:10:14.709Z,32.70
2019-02-24T13:12:43.932Z,32.20
2019-02-24T13:15:12.652Z,33.80
2019-02-24T13:17:41.393Z,35.00
2019-02-24T13:20:11.201Z,33.90
2019-02-24T13:22:40.019Z,34.70
2019-02-24T13:25:10.810Z,36.50
2019-02-24T13:27:39.478Z,37.90
2019-02-24T13:30:16.826Z,36.70
2019-02-24T13:32:45.563Z,36.10
2019-02-24T13:35:14.252Z,34.30
2019-02-24T13:37:42.814Z,35.20
2019-02-24T13:40:13.209Z,31.90
2019-02-24T13:42:41.874Z,32.50
2019-02-24T13:45:21.786Z,32.70
2019-02-24T13:47:50.321Z,32.60
2019-02-24T13:50:21.071Z,33.00
2019-02-24T13:52:49.638Z,34.40
2019-02-24T13:55:18.276Z,34.90
2019-02-24T13:57:46.924Z,35.00
2019-02-24T14:00:18.254Z,35.80
2019-02-24T14:02:46.870Z,34.90
2019-02-24T14:05:15.463Z,31.40
2019-02-24T14:07:44.177Z,32.80
2019-02-24T14:10:14.018Z,31.10
2019-02-24T14:12:42.571Z,30.50
2019-02-24T14:15:15.565Z,33.50
2019-02-24T14:17:47.345Z,37.70
2019-02-24T14:20:17.270Z,36.50
2019-02-24T14:22:45.969Z,37.00
2019-02-24T14:25:15.523Z,41.10
2019-02-24T14:27:44.089Z,41.10
2019-02-24T14:30:15.101Z,41.80
2019-02-24T14:32:44.735Z,39.60
2019-02-24T14:35:15.928Z,42.00
2019-02-24T14:37:44.514Z,41.60
2019-02-24T14:40:13.411Z,42.00
2019-02-24T14:42:42.106Z,41.70
2019-02-24T14:45:13.616Z,45.80
2019-02-24T14:47:42.258Z,44.20
2019-02-24T14:50:11.689Z,42.50
2019-02-24T14:52:40.209Z,42.40
2019-02-24T14:55:13.157Z,41.50
2019-02-24T14:57:41.794Z,42.20
2019-02-24T15:00:18.316Z,41.60
2019-02-24T15:02:47.076Z,41.10
2019-02-24T15:05:16.757Z,40.40
2019-02-24T15:07:45.551Z,41.20
2019-02-24T15:10:19.893Z,41.20
2019-02-24T15:12:48.485Z,40.50
2019-02-24T15:15:26.406Z,44.40
2019-02-24T15:17:53.221Z,41.60
2019-02-24T15:20:22.301Z,46.00
2019-02-24T15:22:50.856Z,46.70
2019-02-24T15:25:19.542Z,45.60
2019-02-24T15:27:48.088Z,47.10
2019-02-24T15:30:19.774Z,47.80
2019-02-24T15:32:51.723Z,48.30
2019-02-24T15:35:18.801Z,46.10
2019-02-24T15:37:47.391Z,45.90
2019-02-24T15:40:15.980Z,46.10
2019-02-24T15:42:44.655Z,46.30
2019-02-24T15:45:13.857Z,46.10
2019-02-24T15:47:42.462Z,47.00
2019-02-24T15:50:12.814Z,46.70
2019-02-24T15:52:41.420Z,49.80
2019-02-24T15:55:17.505Z,50.80
2019-02-24T15:57:46.191Z,49.30
2019-02-24T16:00:25.625Z,50.40
2019-02-24T16:03:01.186Z,48.50
2019-02-24T16:05:24.572Z,48.20
2019-02-24T16:07:53.143Z,47.70
2019-02-24T16:10:22.690Z,46.90
2019-02-24T16:12:51.404Z,47.20
2019-02-24T16:15:22.219Z,46.90
2019-02-24T16:17:50.877Z,46.30
2019-02-24T16:20:28.469Z,45.30
2019-02-24T16:22:57.476Z,45.80
2019-02-24T16:25:26.027Z,45.00
2019-02-24T16:27:54.941Z,45.00
2019-02-24T16:30:23.574Z,45.20
2019-02-24T16:32:52.163Z,45.70
2019-02-24T16:35:20.731Z,45.80
2019-02-24T16:37:49.404Z,46.80
2019-02-24T16:40:23.794Z,46.30
2019-02-24T16:42:52.425Z,47.10
2019-02-24T16:45:21.145Z,47.80
2019-02-24T16:47:49.798Z,46.70
2019-02-24T16:50:20.611Z,47.70
2019-02-24T16:52:49.214Z,47.70
2019-02-24T16:55:18.368Z,47.90
2019-02-24T16:57:47.669Z,48.60
2019-02-24T17:00:26.538Z,48.10
2019-02-24T17:02:55.175Z,49.40
2019-02-24T17:05:23.911Z,49.30
2019-02-24T17:07:52.636Z,49.50
2019-02-24T17:10:22.849Z,50.40
2019-02-24T17:12:51.478Z,50.00
2019-02-24T17:15:20.115Z,50.50
2019-02-24T17:17:48.827Z,51.40
2019-02-24T17:20:22.670Z,51.50
2019-02-24T17:22:51.341Z,52.00
2019-02-24T17:25:19.986Z,52.10
2019-02-24T17:27:48.628Z,53.00
2019-02-24T17:30:17.528Z,53.20
2019-02-24T17:32:46.291Z,54.10
2019-02-24T17:35:14.969Z,54.30
2019-02-24T17:37:43.721Z,54.10
2019-02-24T17:40:22.763Z,54.30
2019-02-24T17:42:51.374Z,54.60
2019-02-24T17:45:20.046Z,55.00
2019-02-24T17:47:48.618Z,54.60
2019-02-24T17:50:17.876Z,55.30
2019-02-24T17:52:46.481Z,55.20
2019-02-24T17:55:19.193Z,54.80
2019-02-24T17:57:47.843Z,56.00
2019-02-24T18:00:23.267Z,56.20
2019-02-24T18:02:51.872Z,56.80
2019-02-24T18:05:20.515Z,56.70
2019-02-24T18:07:49.199Z,56.60
2019-02-24T18:10:17.962Z,56.80
2019-02-24T18:12:46.578Z,57.30
2019-02-24T18:15:15.345Z,56.10
2019-02-24T18:17:44.016Z,56.70
2019-02-24T18:20:15.094Z,56.50
2019-02-24T18:22:43.677Z,58.00
2019-02-24T18:25:12.877Z,57.50
2019-02-24T18:27:41.494Z,57.70
2019-02-24T18:30:24.225Z,57.80
2019-02-24T18:32:52.889Z,57.80
2019-02-24T18:35:21.582Z,56.40
2019-02-24T18:37:50.210Z,56.00
2019-02-24T18:40:18.930Z,55.80
2019-02-24T18:42:47.518Z,54.50
2019-02-24T18:45:16.321Z,54.40
2019-02-24T18:47:44.960Z,53.90
2019-02-24T18:50:18.438Z,53.00
2019-02-24T18:52:47.023Z,53.90
2019-02-24T18:55:15.701Z,53.30
2019-02-24T18:57:44.550Z,51.90
2019-02-24T19:00:18.567Z,51.90
2019-02-24T19:02:47.205Z,51.20
2019-02-24T19:05:15.869Z,51.10
2019-02-24T19:07:44.500Z,49.90
2019-02-24T19:10:18.322Z,48.90
2019-02-24T19:12:46.891Z,49.20
2019-02-24T19:15:17.236Z,48.90
2019-02-24T19:17:45.867Z,48.30
2019-02-24T19:20:19.679Z,48.70
2019-02-24T19:22:48.306Z,48.00
2019-02-24T19:25:17.332Z,48.70
2019-02-24T19:27:45.959Z,48.10
2019-02-24T19:30:16.516Z,49.20
2019-02-24T19:32:45.231Z,48.20
2019-02-24T19:35:15.499Z,49.20
2019-02-24T19:37:44.702Z,49.30
2019-02-24T19:40:16.106Z,49.60
2019-02-24T19:42:44.823Z,49.60
2019-02-24T19:45:17.202Z,50.10
2019-02-24T19:47:45.990Z,50.60
2019-02-24T19:50:19.142Z,50.80
2019-02-24T19:52:49.325Z,51.70
2019-02-24T19:55:18.225Z,52.20
2019-02-24T19:57:46.939Z,52.20
2019-02-24T20:00:21.011Z,51.70
2019-02-24T20:02:49.712Z,52.10
2019-02-24T20:05:19.123Z,52.10
2019-02-24T20:07:48.276Z,52.40
2019-02-24T20:10:22.114Z,52.30
2019-02-24T20:12:50.854Z,52.60
2019-02-24T20:15:19.585Z,51.50
2019-02-24T20:17:48.290Z,52.00
2019-02-24T20:20:17.319Z,51.30
2019-02-24T20:22:46.020Z,51.00
2019-02-24T20:25:16.373Z,50.80
2019-02-24T20:27:47.873Z,51.10
2019-02-24T20:30:22.006Z,50.80
2019-02-24T20:32:50.522Z,50.70
2019-02-24T20:35:19.328Z,51.40
2019-02-24T20:37:48.162Z,50.80
2019-02-24T20:40:16.885Z,51.40
2019-02-24T20:42:47.005Z,52.20
2019-02-24T20:45:17.787Z,52.40
2019-02-24T20:47:46.448Z,52.00
2019-02-24T20:50:17.313Z,52.00
2019-02-24T20:52:46.012Z,51.80
2019-02-24T20:55:14.697Z,51.90
2019-02-24T20:57:43.281Z,52.50
2019-02-24T21:00:17.662Z,52.90
2019-02-24T21:02:46.486Z,53.40
2019-02-24T21:05:19.563Z,53.10
2019-02-24T21:07:48.242Z,53.20
2019-02-24T21:10:20.003Z,53.30
2019-02-24T21:12:49.934Z,53.00
2019-02-24T21:15:19.036Z,53.10
2019-02-24T21:17:47.668Z,52.40
2019-02-24T21:20:24.985Z,52.30
2019-02-24T21:22:53.680Z,52.80
2019-02-24T21:25:22.486Z,53.30
2019-02-24T21:27:52.408Z,52.20
2019-02-24T21:30:21.753Z,52.30
2019-02-24T21:32:50.600Z,53.10
2019-02-24T21:35:19.247Z,51.80
2019-02-24T21:37:48.026Z,51.90
2019-02-24T21:40:18.129Z,51.40
2019-02-24T21:42:54.409Z,51.60
2019-02-24T21:45:25.372Z,52.10
2019-02-24T21:47:54.061Z,52.20
2019-02-24T21:50:22.710Z,52.40
2019-02-24T21:52:51.277Z,53.30
2019-02-24T21:55:21.401Z,53.50
2019-02-24T21:57:50.108Z,53.40
2019-02-24T22:00:23.693Z,53.40
2019-02-24T22:02:52.331Z,54.70
2019-02-24T22:05:22.622Z,54.00
2019-02-24T22:07:51.189Z,54.90
2019-02-24T22:10:19.930Z,55.20
2019-02-24T22:12:48.645Z,55.80
2019-02-24T22:15:25.709Z,55.90
2019-02-24T22:17:54.526Z,56.20
2019-02-24T22:20:23.237Z,55.40
2019-02-24T22:22:51.995Z,55.00
2019-02-24T22:25:23.797Z,54.90
2019-02-24T22:27:52.358Z,54.40
2019-02-24T22:30:22.175Z,54.40
2019-02-24T22:32:50.896Z,54.50
2019-02-24T22:35:19.541Z,54.00
2019-02-24T22:37:48.203Z,53.60
2019-02-24T22:40:17.306Z,53.70
2019-02-24T22:42:46.308Z,54.20
2019-02-24T22:45:19.997Z,54.20
2019-02-24T22:47:48.693Z,54.40
2019-02-24T22:50:17.527Z,54.20
2019-02-24T22:52:46.431Z,54.20
2019-02-24T22:55:17.134Z,54.40
2019-02-24T22:57:45.845Z,54.70
2019-02-24T23:00:27.560Z,54.30
2019-02-24T23:02:56.160Z,55.10
2019-02-24T23:05:24.887Z,55.20
2019-02-24T23:07:53.459Z,54.90
2019-02-24T23:10:22.026Z,54.90
2019-02-24T23:12:52.241Z,55.10
2019-02-24T23:15:20.936Z,55.30
2019-02-24T23:17:49.555Z,56.40
2019-02-24T23:20:18.351Z,56.20
2019-02-24T23:22:46.973Z,55.90
2019-02-24T23:25:15.537Z,56.70
2019-02-24T23:27:44.119Z,56.50
2019-02-24T23:30:12.842Z,57.60
2019-02-24T23:32:41.632Z,58.50
2019-02-24T23:35:10.519Z,58.80
2019-02-24T23:37:39.101Z,58.70
2019-02-24T23:40:09.427Z,58.60
2019-02-24T23:42:38.002Z,59.10
2019-02-24T23:45:11.551Z,58.90
2019-02-24T23:47:40.194Z,59.30
2019-02-24T23:50:10.253Z,59.60
2019-02-24T23:52:38.879Z,59.80
2019-02-24T23:55:08.747Z,60.10
2019-02-24T23:57:37.396Z,60.40
